Time;durP1;ratioP1;P1;durP2;ratioP2;P2;SDS_P1;SDS_P2;PMS_P1;PMS_P2;Temp;Humidity;BMP_temperature;BMP_pressure;BME280_temperature;BME280_humidity;BME280_pressure;Samples;Min_cycle;Max_cycle;Signal;HPM_P1;HPM_P2
2023/04/19 00:00:08;;;;;;;;;;;;;;;;;;4897609;29;20500;-78
2023/04/19 00:02:34;;;;;;;;;;;;;;;;;;4897494;29;19915;-79
2023/04/19 00:05:00;;;;;;;;;;;;;;;;;;4898566;29;20418;-79
2023/04/19 00:07:26;;;;;;;;;;;;;;;;;;4897608;29;20011;-79
2023/04/19 00:09:51;;;;;;;;;;;;;;;;;;4898882;29;19923;-78
2023/04/19 00:12:16;;;;;;;;;;;;;;;;;;4898217;29;19922;-78
2023/04/19 00:14:42;;;;;;;;;;;;;;;;;;4897461;29;20307;-79
2023/04/19 00:17:07;;;;;;;;;;;;;;;;;;4940421;23;19927;-88
2023/04/19 00:19:33;;;;;;;;;;;;;;;;;;4921722;29;19965;-87
2023/04/19 00:21:58;;;;;;;;;;;;;;;;;;4889847;29;19915;-86
2023/04/19 00:24:23;;;;;;;;;;;;;;;;;;4905003;29;19926;-87
2023/04/19 00:26:49;;;;;;;;;;;;;;;;;;4921323;29;19915;-87
2023/04/19 00:29:14;;;;;;;;;;;;;;;;;;4889245;29;20004;-86
2023/04/19 00:31:39;;;;;;;;;;;;;;;;;;4921092;29;19922;-86
2023/04/19 00:34:05;;;;;;;;;;;;;;;;;;4890907;29;20046;-86
2023/04/19 00:36:30;;;;;;;;;;;;;;;;;;4920209;29;19915;-87
2023/04/19 00:38:56;;;;;;;;;;;;;;;;;;4920475;29;19927;-87
2023/04/19 00:41:21;;;;;;;;;;;;;;;;;;4922604;29;20406;-87
2023/04/19 00:43:47;;;;;;;;;;;;;;;;;;4905523;29;20363;-88
2023/04/19 00:46:12;;;;;;;;;;;;;;;;;;4903938;29;19922;-86
2023/04/19 00:48:37;;;;;;;;;;;;;;;;;;4919980;29;20396;-87
2023/04/19 00:51:03;;;;;;;;;;;;;;;;;;4919842;29;19922;-87
2023/04/19 00:53:28;;;;;;;;;;;;;;;;;;4918485;29;19922;-87
2023/04/19 00:55:53;;;;;;;;;;;;;;;;;;4920116;29;20010;-88
2023/04/19 00:58:19;;;;;;;;;;;;;;;;;;4920386;29;19923;-86
2023/04/19 01:00:44;;;;;;;;;;;;;;;;;;4920845;29;19919;-88
2023/04/19 01:03:12;;;;;;;;;;;;;;;;;;4922472;29;19922;-87
2023/04/19 01:05:37;;;;;;;;;;;;;;;;;;4905152;29;19919;-88
2023/04/19 01:08:03;;;;;;;;;;;;;;;;;;4889515;29;20356;-87
2023/04/19 01:10:28;;;;;;;;;;;;;;;;;;4922557;29;19918;-88
2023/04/19 01:12:53;;;;;;;;;;;;;;;;;;4922173;29;20019;-85
2023/04/19 01:15:19;;;;;;;;;;;;;;;;;;4890327;29;19915;-86
2023/04/19 01:17:48;;;;;;;;;;;;;;;;;;4889592;29;19986;-87
2023/04/19 01:20:14;;;;;;;;;;;;;;;;;;4903996;29;20005;-87
2023/04/19 01:22:39;;;;;;;;;;;;;;;;;;4891344;29;19915;-89
2023/04/19 01:25:05;;;;;;;;;;;;;;;;;;4905639;29;19930;-87
2023/04/19 01:27:31;;;;;;;;;;;;;;;;;;4920961;29;19915;-88
2023/04/19 01:29:56;;;;;;;;;;;;;;;;;;4906290;29;20014;-86
2023/04/19 01:32:25;;;;;;;;;;;;;;;;;;4901172;29;19919;-86
2023/04/19 01:34:50;;;;;;;;;;;;;;;;;;4901322;29;20021;-86
2023/04/19 01:37:16;;;;;;;;;;;;;;;;;;4918860;29;19922;-87
2023/04/19 01:39:41;;;;;;;;;;;;;;;;;;4919197;29;19915;-86
2023/04/19 01:42:06;;;;;;;;;;;;;;;;;;4917025;29;19915;-88
2023/04/19 01:44:32;;;;;;;;;;;;;;;;;;4917068;29;19916;-85
2023/04/19 01:46:58;;;;;;;;;;;;;;;;;;4920306;29;19915;-86
2023/04/19 01:49:23;;;;;;;;;;;;;;;;;;4926861;29;19915;-85
2023/04/19 01:51:49;;;;;;;;;;;;;;;;;;4929040;29;19938;-87
2023/04/19 01:54:14;;;;;;;;;;;;;;;;;;4920918;29;19923;-88
2023/04/19 01:56:40;;;;;;;;;;;;;;;;;;4919549;29;20004;-86
2023/04/19 01:59:05;;;;;;;;;;;;;;;;;;4901625;29;19970;-87
2023/04/19 02:01:31;;;;;;;;;;;;;;;;;;4917462;29;19915;-86
2023/04/19 02:03:57;;;;;;;;;;;;;;;;;;4901879;29;19915;-86
2023/04/19 02:06:22;;;;;;;;;;;;;;;;;;4917332;29;19916;-86
2023/04/19 02:08:49;;;;;;;;;;;;;;;;;;4920850;29;19954;-86
2023/04/19 02:11:14;;;;;;;;;;;;;;;;;;4921105;29;19919;-85
2023/04/19 02:13:40;;;;;;;;;;;;;;;;;;4902695;29;20302;-88
2023/04/19 02:16:06;;;;;;;;;;;;;;;;;;4902189;29;19920;-88
2023/04/19 02:18:31;;;;;;;;;;;;;;;;;;4902783;29;20287;-88
2023/04/19 02:20:56;;;;;;;;;;;;;;;;;;4917908;29;19958;-87
2023/04/19 02:23:22;;;;;;;;;;;;;;;;;;4902473;29;19915;-88
2023/04/19 02:25:47;;;;;;;;;;;;;;;;;;4904099;29;20001;-86
2023/04/19 02:28:13;;;;;;;;;;;;;;;;;;4919420;29;19915;-87
2023/04/19 02:30:38;;;;;;;;;;;;;;;;;;4919696;29;20010;-87
2023/04/19 02:33:04;;;;;;;;;;;;;;;;;;4904013;29;19926;-87
2023/04/19 02:35:29;;;;;;;;;;;;;;;;;;4903206;29;19940;-89
2023/04/19 02:37:57;;;;;;;;;;;;;;;;;;4920522;29;19972;-87
2023/04/19 02:40:25;;;;;;;;;;;;;;;;;;4904724;29;19919;-88
2023/04/19 02:42:50;;;;;;;;;;;;;;;;;;4920882;29;19922;-87
2023/04/19 02:45:15;;;;;;;;;;;;;;;;;;4921569;29;20010;-88
2023/04/19 02:47:41;;;;;;;;;;;;;;;;;;4889965;29;20402;-88
2023/04/19 02:50:06;;;;;;;;;;;;;;;;;;4904819;29;19915;-87
2023/04/19 02:52:34;;;;;;;;;;;;;;;;;;4890272;29;19919;-88
2023/04/19 02:55:00;;;;;;;;;;;;;;;;;;4906617;29;19951;-88
2023/04/19 02:57:25;;;;;;;;;;;;;;;;;;4907113;29;19970;-86
2023/04/19 02:59:51;;;;;;;;;;;;;;;;;;4908594;29;19958;-85
2023/04/19 03:02:16;;;;;;;;;;;;;;;;;;4914405;29;19943;-86
2023/04/19 03:04:42;;;;;;;;;;;;;;;;;;4918397;29;19915;-84
2023/04/19 03:07:07;;;;;;;;;;;;;;;;;;4922912;29;19930;-86
2023/04/19 03:09:33;;;;;;;;;;;;;;;;;;4922606;29;20038;-84
2023/04/19 03:11:58;;;;;;;;;;;;;;;;;;4922456;29;19939;-82
2023/04/19 03:14:24;;;;;;;;;;;;;;;;;;4936153;29;19962;-86
2023/04/19 03:16:49;;;;;;;;;;;;;;;;;;4935879;29;19946;-86
2023/04/19 03:19:15;;;;;;;;;;;;;;;;;;4936058;29;19916;-81
2023/04/19 03:21:46;;;;;;;;;;;;;;;;;;4918151;29;19915;-87
2023/04/19 03:24:11;;;;;;;;;;;;;;;;;;4891438;29;19967;-89
2023/04/19 03:26:40;;;;;;;;;;;;;;;;;;4921360;29;19958;-83
2023/04/19 03:29:05;;;;;;;;;;;;;;;;;;4903668;29;19938;-87
2023/04/19 03:31:38;;;;;;;;;;;;;;;;;;4903604;29;19915;-86
2023/04/19 03:34:03;;;;;;;;;;;;;;;;;;4919606;29;19926;-84
2023/04/19 03:36:35;;;;;;;;;;;;;;;;;;4920400;29;19919;-86
2023/04/19 03:39:01;;;;;;;;;;;;;;;;;;4890693;29;20306;-87
2023/04/19 03:41:26;;;;;;;;;;;;;;;;;;4905191;29;19915;-89
2023/04/19 03:44:12;;;;;;;;;;;;;;;;;;4920813;29;19915;-87
2023/04/19 03:46:41;;;;;;;;;;;;;;;;;;4918619;29;19915;-88
2023/04/19 03:49:06;;;;;;;;;;;;;;;;;;4888558;29;20331;-89
2023/04/19 03:51:32;;;;;;;;;;;;;;;;;;4903848;29;19965;-86
2023/04/19 03:53:57;;;;;;;;;;;;;;;;;;4904578;29;20039;-86
2023/04/19 03:56:23;;;;;;;;;;;;;;;;;;4903787;29;19943;-87
2023/04/19 03:58:50;;;;;;;;;;;;;;;;;;4903385;29;20497;-85
2023/04/19 04:01:15;;;;;;;;;;;;;;;;;;4887990;29;19922;-86
2023/04/19 04:03:41;;;;;;;;;;;;;;;;;;4918332;29;20379;-86
2023/04/19 04:06:06;;;;;;;;;;;;;;;;;;4902197;29;20010;-87
2023/04/19 04:08:32;;;;;;;;;;;;;;;;;;4918274;29;19915;-87
2023/04/19 04:10:57;;;;;;;;;;;;;;;;;;4903776;29;20043;-86
2023/04/19 04:13:22;;;;;;;;;;;;;;;;;;4902594;29;19966;-84
2023/04/19 04:15:59;;;;;;;;;;;;;;;;;;4905358;29;20357;-87
2023/04/19 04:18:25;;;;;;;;;;;;;;;;;;4903894;29;19985;-87
2023/04/19 04:20:51;;;;;;;;;;;;;;;;;;4887654;29;20283;-86
2023/04/19 04:23:17;;;;;;;;;;;;;;;;;;4920102;29;19921;-87
2023/04/19 04:25:47;;;;;;;;;;;;;;;;;;4920287;29;19922;-85
2023/04/19 04:28:13;;;;;;;;;;;;;;;;;;4905744;29;20395;-87
2023/04/19 04:30:39;;;;;;;;;;;;;;;;;;4893305;29;20371;-86
2023/04/19 04:33:07;;;;;;;;;;;;;;;;;;4911497;29;19922;-87
2023/04/19 04:35:34;;;;;;;;;;;;;;;;;;4910661;29;19926;-85
2023/04/19 04:38:14;;;;;;;;;;;;;;;;;;4911640;29;19915;-88
2023/04/19 04:40:40;;;;;;;;;;;;;;;;;;4907814;29;19999;-85
2023/04/19 04:43:06;;;;;;;;;;;;;;;;;;4907385;29;19940;-88
2023/04/19 04:45:32;;;;;;;;;;;;;;;;;;4895110;29;19911;-85
2023/04/19 04:47:59;;;;;;;;;;;;;;;;;;4897102;29;19915;-82
2023/04/19 04:50:24;;;;;;;;;;;;;;;;;;4929761;29;19942;-84
2023/04/19 04:52:50;;;;;;;;;;;;;;;;;;4929443;29;19915;-85
2023/04/19 04:55:21;;;;;;;;;;;;;;;;;;4898254;29;19967;-85
2023/04/19 04:57:46;;;;;;;;;;;;;;;;;;4911258;29;19915;-87
2023/04/19 05:00:19;;;;;;;;;;;;;;;;;;4909259;29;19911;-87
2023/04/19 05:02:53;;;;;;;;;;;;;;;;;;4894187;29;19915;-89
2023/04/19 05:05:18;;;;;;;;;;;;;;;;;;4906069;29;19915;-88
2023/04/19 05:07:44;;;;;;;;;;;;;;;;;;4905072;29;19919;-88
2023/04/19 05:10:10;;;;;;;;;;;;;;;;;;4917594;29;19923;-88
2023/04/19 05:12:42;;;;;;;;;;;;;;;;;;4886811;29;19954;-88
2023/04/19 05:15:08;;;;;;;;;;;;;;;;;;4901609;29;20001;-87
2023/04/19 05:17:35;;;;;;;;;;;;;;;;;;4901668;29;19923;-87
2023/04/19 05:20:00;;;;;;;;;;;;;;;;;;4902127;29;19922;-87
2023/04/19 05:22:26;;;;;;;;;;;;;;;;;;4902194;29;19919;-88
2023/04/19 05:24:51;;;;;;;;;;;;;;;;;;4899946;29;19915;-88
2023/04/19 05:27:17;;;;;;;;;;;;;;;;;;4886545;29;19915;-88
2023/04/19 05:29:42;;;;;;;;;;;;;;;;;;4885680;29;20407;-88
2023/04/19 05:32:07;;;;;;;;;;;;;;;;;;4887226;29;19922;-88
2023/04/19 05:34:40;;;;;;;;;;;;;;;;;;4900610;29;20496;-87
2023/04/19 05:37:10;;;;;;;;;;;;;;;;;;4899204;29;19938;-87
2023/04/19 05:39:35;;;;;;;;;;;;;;;;;;4915537;29;20359;-86
2023/04/19 05:42:01;;;;;;;;;;;;;;;;;;4898852;29;19919;-86
2023/04/19 05:44:26;;;;;;;;;;;;;;;;;;4914888;29;20442;-86
2023/04/19 05:46:52;;;;;;;;;;;;;;;;;;4915146;29;19982;-86
2023/04/19 05:49:30;;;;;;;;;;;;;;;;;;4914700;29;19915;-88
2023/04/19 05:52:16;;;;;;;;;;;;;;;;;;4914825;29;19975;-89
2023/04/19 05:54:48;;;;;;;;;;;;;;;;;;4898867;29;20403;-86
2023/04/19 05:57:14;;;;;;;;;;;;;;;;;;4883534;29;19964;-87
2023/04/19 05:59:39;;;;;;;;;;;;;;;;;;4915063;29;19911;-87
2023/04/19 06:02:05;;;;;;;;;;;;;;;;;;4916434;29;20002;-85
2023/04/19 06:04:30;;;;;;;;;;;;;;;;;;4883749;29;20302;-88
2023/04/19 06:06:56;;;;;;;;;;;;;;;;;;4915215;29;19924;-86
2023/04/19 06:09:21;;;;;;;;;;;;;;;;;;4915208;29;20367;-87
2023/04/19 06:11:48;;;;;;;;;;;;;;;;;;4918667;29;19922;-87
2023/04/19 06:14:13;;;;;;;;;;;;;;;;;;4903831;29;19919;-85
2023/04/19 06:16:39;;;;;;;;;;;;;;;;;;4832447;23;1854387;-78
2023/04/19 06:19:04;;;;;;;;;;;;;;;;;;4901795;29;19916;-79
2023/04/19 06:21:30;;;;;;;;;;;;;;;;;;4904672;29;19963;-79
2023/04/19 06:23:55;;;;;;;;;;;;;;;;;;4904528;29;19916;-78
2023/04/19 06:26:21;;;;;;;;;;;;;;;;;;4911024;29;19916;-79
2023/04/19 06:28:46;;;;;;;;;;;;;;;;;;4909896;29;19962;-79
2023/04/19 06:31:11;;;;;;;;;;;;;;;;;;4908439;29;19922;-81
2023/04/19 06:33:37;;;;;;;;;;;;;;;;;;4910919;29;19920;-80
2023/04/19 06:36:03;;;;;;;;;;;;;;;;;;4912981;29;19922;-80
2023/04/19 06:38:28;;;;;;;;;;;;;;;;;;4913586;29;19919;-80
2023/04/19 06:40:53;;;;;;;;;;;;;;;;;;4910993;29;19915;-80
2023/04/19 06:43:20;;;;;;;;;;;;;;;;;;4908426;29;19928;-81
2023/04/19 06:45:45;;;;;;;;;;;;;;;;;;4907242;29;19922;-78
2023/04/19 06:48:10;;;;;;;;;;;;;;;;;;4914848;29;19916;-81
2023/04/19 06:50:36;;;;;;;;;;;;;;;;;;4909139;29;19975;-80
2023/04/19 06:53:01;;;;;;;;;;;;;;;;;;4886525;29;19915;-80
2023/04/19 06:55:27;;;;;;;;;;;;;;;;;;4900244;29;19915;-80
2023/04/19 06:57:52;;;;;;;;;;;;;;;;;;4884339;29;19998;-80
2023/04/19 07:00:17;;;;;;;;;;;;;;;;;;4900453;29;19926;-80
2023/04/19 07:02:43;;;;;;;;;;;;;;;;;;4904539;29;20349;-79
2023/04/19 07:05:08;;;;;;;;;;;;;;;;;;4900657;29;19915;-80
2023/04/19 07:07:36;;;;;;;;;;;;;;;;;;4900014;29;20443;-80
2023/04/19 07:10:02;;;;;;;;;;;;;;;;;;4900214;29;19922;-79
2023/04/19 07:12:27;;;;;;;;;;;;;;;;;;4901077;29;20007;-80
2023/04/19 07:14:55;;;;;;;;;;;;;;;;;;4899862;29;19970;-80
2023/04/19 07:17:20;;;;;;;;;;;;;;;;;;4900353;29;19920;-79
2023/04/19 07:19:46;;;;;;;;;;;;;;;;;;4901752;29;20265;-80
2023/04/19 07:22:11;;;;;;;;;;;;;;;;;;4900179;29;19916;-79
2023/04/19 07:24:39;;;;;;;;;;;;;;;;;;4899507;29;19938;-80
2023/04/19 07:27:04;;;;;;;;;;;;;;;;;;4899763;29;19916;-80
2023/04/19 07:29:30;;;;;;;;;;;;;;;;;;4902831;29;19923;-80
2023/04/19 07:31:55;;;;;;;;;;;;;;;;;;4904204;29;19916;-79
2023/04/19 07:34:20;;;;;;;;;;;;;;;;;;4902446;29;20446;-79
2023/04/19 07:36:46;;;;;;;;;;;;;;;;;;4900957;29;19915;-80
2023/04/19 07:39:12;;;;;;;;;;;;;;;;;;4900898;29;19922;-80
2023/04/19 07:41:37;;;;;;;;;;;;;;;;;;4900534;29;19915;-79
2023/04/19 07:44:02;;;;;;;;;;;;;;;;;;4898474;29;20399;-79
2023/04/19 07:46:28;;;;;;;;;;;;;;;;;;4899119;29;19920;-80
2023/04/19 07:48:53;;;;;;;;;;;;;;;;;;4900026;29;20379;-79
2023/04/19 07:51:19;;;;;;;;;;;;;;;;;;4898627;29;20011;-80
2023/04/19 07:53:44;;;;;;;;;;;;;;;;;;4898496;29;19991;-80
2023/04/19 07:56:10;;;;;;;;;;;;;;;;;;4899619;29;19915;-79
2023/04/19 07:58:35;;;;;;;;;;;;;;;;;;4898193;29;19932;-79
2023/04/19 08:01:01;;;;;;;;;;;;;;;;;;4899456;29;19915;-79
2023/04/19 08:03:26;;;;;;;;;;;;;;;;;;4899308;29;19918;-79
2023/04/19 08:05:51;;;;;;;;;;;;;;;;;;4899678;29;20304;-78
2023/04/19 08:08:17;;;;;;;;;;;;;;;;;;4901913;29;19944;-79
2023/04/19 08:10:43;;;;;;;;;;;;;;;;;;4900447;29;19915;-80
2023/04/19 08:13:08;;;;;;;;;;;;;;;;;;4900097;29;19924;-80
2023/04/19 08:15:33;;;;;;;;;;;;;;;;;;4902319;29;20376;-79
2023/04/19 08:17:59;;;;;;;;;;;;;;;;;;4899015;29;19919;-79
2023/04/19 08:20:25;;;;;;;;;;;;;;;;;;4899288;29;19999;-79
2023/04/19 08:22:51;;;;;;;;;;;;;;;;;;4897584;29;19915;-80
2023/04/19 08:25:16;;;;;;;;;;;;;;;;;;4897217;29;19915;-80
2023/04/19 08:27:42;;;;;;;;;;;;;;;;;;4881835;29;19998;-80
2023/04/19 08:30:08;;;;;;;;;;;;;;;;;;4898650;29;19920;-79
2023/04/19 08:32:33;;;;;;;;;;;;;;;;;;4897676;29;19915;-79
2023/04/19 08:34:59;;;;;;;;;;;;;;;;;;4897447;29;20326;-80
2023/04/19 08:37:25;;;;;;;;;;;;;;;;;;4898526;29;20002;-80
2023/04/19 08:39:51;;;;;;;;;;;;;;;;;;4898978;29;19970;-80
2023/04/19 08:42:16;;;;;;;;;;;;;;;;;;4898262;29;19916;-79
2023/04/19 08:44:42;;;;;;;;;;;;;;;;;;4898227;29;19915;-80
2023/04/19 08:47:07;;;;;;;;;;;;;;;;;;4898128;29;20431;-79
2023/04/19 08:49:32;;;;;;;;;;;;;;;;;;4897548;29;19967;-79
2023/04/19 08:51:58;;;;;;;;;;;;;;;;;;4899401;29;20018;-79
2023/04/19 08:54:23;;;;;;;;;;;;;;;;;;4897997;29;20371;-80
2023/04/19 08:56:49;;;;;;;;;;;;;;;;;;4897220;29;19966;-79
2023/04/19 08:59:14;;;;;;;;;;;;;;;;;;4897805;29;19974;-80
2023/04/19 09:01:40;;;;;;;;;;;;;;;;;;4898520;29;19922;-79
2023/04/19 09:04:06;;;;;;;;;;;;;;;;;;4897181;29;19915;-80
2023/04/19 09:06:31;;;;;;;;;;;;;;;;;;4897869;29;20376;-80
2023/04/19 09:08:57;;;;;;;;;;;;;;;;;;4896931;29;19916;-79
2023/04/19 09:11:23;;;;;;;;;;;;;;;;;;4896949;29;19922;-80
2023/04/19 09:13:49;;;;;;;;;;;;;;;;;;4897533;29;19919;-80
2023/04/19 09:16:14;;;;;;;;;;;;;;;;;;4897410;29;19922;-79
2023/04/19 09:18:40;;;;;;;;;;;;;;;;;;4897067;29;19951;-79
2023/04/19 09:21:05;;;;;;;;;;;;;;;;;;4897670;29;19915;-80
2023/04/19 09:23:31;;;;;;;;;;;;;;;;;;4899121;29;20490;-79
2023/04/19 09:25:56;;;;;;;;;;;;;;;;;;4896686;29;19922;-80
2023/04/19 09:28:22;;;;;;;;;;;;;;;;;;4898089;29;20388;-80
2023/04/19 09:30:47;;;;;;;;;;;;;;;;;;4898153;29;20351;-80
2023/04/19 09:33:13;;;;;;;;;;;;;;;;;;4896933;29;20348;-80
2023/04/19 09:35:40;;;;;;;;;;;;;;;;;;4897946;29;19916;-80
2023/04/19 09:38:05;;;;;;;;;;;;;;;;;;4897117;29;19979;-80
2023/04/19 09:40:30;;;;;;;;;;;;;;;;;;4897164;29;20014;-79
2023/04/19 09:42:56;;;;;;;;;;;;;;;;;;4881309;29;19915;-80
2023/04/19 09:45:21;;;;;;;;;;;;;;;;;;4899684;29;19915;-80
2023/04/19 09:47:47;;;;;;;;;;;;;;;;;;4902067;29;19995;-80
2023/04/19 09:50:12;;;;;;;;;;;;;;;;;;4900712;29;19915;-80
2023/04/19 09:52:37;;;;;;;;;;;;;;;;;;4900793;29;19961;-80
2023/04/19 09:55:03;;;;;;;;;;;;;;;;;;4902477;29;19930;-80
2023/04/19 09:57:29;;;;;;;;;;;;;;;;;;4902181;29;19923;-81
2023/04/19 09:59:54;;;;;;;;;;;;;;;;;;4903878;29;20360;-80
2023/04/19 10:02:19;;;;;;;;;;;;;;;;;;4907700;29;20011;-80
2023/04/19 10:04:45;;;;;;;;;;;;;;;;;;4907662;29;20007;-79
2023/04/19 10:07:10;;;;;;;;;;;;;;;;;;4908630;29;19939;-79
2023/04/19 10:09:36;;;;;;;;;;;;;;;;;;4893145;29;19971;-79
2023/04/19 10:12:01;;;;;;;;;;;;;;;;;;4910151;29;19916;-79
2023/04/19 10:14:27;;;;;;;;;;;;;;;;;;4907876;29;19919;-80
2023/04/19 10:16:52;;;;;;;;;;;;;;;;;;4906660;29;19927;-80
2023/04/19 10:19:18;;;;;;;;;;;;;;;;;;4889886;29;19920;-80
2023/04/19 10:21:46;;;;;;;;;;;;;;;;;;4903030;29;20411;-81
2023/04/19 10:24:11;;;;;;;;;;;;;;;;;;4901112;29;19919;-80
2023/04/19 10:26:36;;;;;;;;;;;;;;;;;;4900831;29;19931;-81
2023/04/19 10:29:02;;;;;;;;;;;;;;;;;;4902393;29;19916;-80
2023/04/19 10:31:27;;;;;;;;;;;;;;;;;;4902995;29;19923;-80
2023/04/19 10:33:53;;;;;;;;;;;;;;;;;;4902676;29;19951;-81
2023/04/19 10:36:18;;;;;;;;;;;;;;;;;;4903141;29;19919;-79
2023/04/19 10:38:45;;;;;;;;;;;;;;;;;;4884154;29;19915;-80
2023/04/19 10:41:13;;;;;;;;;;;;;;;;;;4900703;29;19965;-81
2023/04/19 10:43:38;;;;;;;;;;;;;;;;;;4900456;29;20464;-80
2023/04/19 10:46:04;;;;;;;;;;;;;;;;;;4899501;29;19995;-80
2023/04/19 10:48:31;;;;;;;;;;;;;;;;;;4899576;29;19919;-80
2023/04/19 10:50:57;;;;;;;;;;;;;;;;;;4900148;29;19911;-80
2023/04/19 10:53:22;;;;;;;;;;;;;;;;;;4901034;29;19919;-80
2023/04/19 10:55:47;;;;;;;;;;;;;;;;;;4899054;29;19920;-80
2023/04/19 10:58:13;;;;;;;;;;;;;;;;;;4900985;29;20006;-80
2023/04/19 11:00:39;;;;;;;;;;;;;;;;;;4899674;29;19915;-80
2023/04/19 11:03:06;;;;;;;;;;;;;;;;;;4899366;29;19923;-81
2023/04/19 11:05:32;;;;;;;;;;;;;;;;;;4883260;29;19916;-80
2023/04/19 11:07:57;;;;;;;;;;;;;;;;;;4899445;29;19923;-81
2023/04/19 11:10:23;;;;;;;;;;;;;;;;;;4900519;29;19938;-81
2023/04/19 11:12:48;;;;;;;;;;;;;;;;;;4899316;29;19926;-80
2023/04/19 11:15:14;;;;;;;;;;;;;;;;;;4900385;29;19955;-80
2023/04/19 11:17:40;;;;;;;;;;;;;;;;;;4899537;29;20261;-80
2023/04/19 11:20:06;;;;;;;;;;;;;;;;;;4899739;29;19923;-80
2023/04/19 11:22:31;;;;;;;;;;;;;;;;;;4900466;29;19922;-80
2023/04/19 11:24:57;;;;;;;;;;;;;;;;;;4887886;29;20005;-79
2023/04/19 11:27:22;;;;;;;;;;;;;;;;;;4903337;29;19919;-80
2023/04/19 11:29:48;;;;;;;;;;;;;;;;;;4901526;29;19919;-81
2023/04/19 11:32:13;;;;;;;;;;;;;;;;;;4899845;29;19922;-80
2023/04/19 11:34:38;;;;;;;;;;;;;;;;;;4899143;29;19923;-79
2023/04/19 11:37:04;;;;;;;;;;;;;;;;;;4899762;29;19915;-80
2023/04/19 11:39:29;;;;;;;;;;;;;;;;;;4898975;29;19923;-80
2023/04/19 11:41:55;;;;;;;;;;;;;;;;;;4899286;29;19916;-79
2023/04/19 11:44:20;;;;;;;;;;;;;;;;;;4897716;29;19923;-80
2023/04/19 11:46:46;;;;;;;;;;;;;;;;;;4897782;29;20042;-80
2023/04/19 11:49:11;;;;;;;;;;;;;;;;;;4897505;29;20367;-80
2023/04/19 11:51:36;;;;;;;;;;;;;;;;;;4899044;29;20252;-80
2023/04/19 11:54:02;;;;;;;;;;;;;;;;;;4898876;29;19974;-80
2023/04/19 11:56:27;;;;;;;;;;;;;;;;;;4898609;29;19916;-80
2023/04/19 11:58:52;;;;;;;;;;;;;;;;;;4898098;29;19982;-80
2023/04/19 12:01:23;;;;;;;;;;;;;;;;;;4898234;29;20005;-80
2023/04/19 12:03:49;;;;;;;;;;;;;;;;;;4882190;29;19919;-80
2023/04/19 12:06:14;;;;;;;;;;;;;;;;;;4897372;29;19930;-80
2023/04/19 12:08:39;;;;;;;;;;;;;;;;;;4898788;29;19916;-80
2023/04/19 12:11:05;;;;;;;;;;;;;;;;;;4897692;29;19915;-80
2023/04/19 12:13:30;;;;;;;;;;;;;;;;;;4897546;29;20395;-80
2023/04/19 12:15:56;;;;;;;;;;;;;;;;;;4897170;29;19915;-80
2023/04/19 12:18:24;;;;;;;;;;;;;;;;;;4946516;23;19927;-80
2023/04/19 12:20:49;;;;;;;;;;;;;;;;;;4910572;29;19922;-81
2023/04/19 12:23:15;;;;;;;;;;;;;;;;;;4925457;29;20295;-79
2023/04/19 12:25:41;;;;;;;;;;;;;;;;;;4926119;29;19922;-80
2023/04/19 12:28:06;;;;;;;;;;;;;;;;;;4924992;29;20356;-80
2023/04/19 12:30:35;;;;;;;;;;;;;;;;;;4924720;29;20344;-80
2023/04/19 12:33:01;;;;;;;;;;;;;;;;;;4925646;29;19939;-80
2023/04/19 12:35:26;;;;;;;;;;;;;;;;;;4923703;29;19915;-80
2023/04/19 12:37:52;;;;;;;;;;;;;;;;;;4922509;29;19915;-81
2023/04/19 12:40:18;;;;;;;;;;;;;;;;;;4907740;29;19938;-79
2023/04/19 12:42:47;;;;;;;;;;;;;;;;;;4909225;29;19915;-80
2023/04/19 12:45:13;;;;;;;;;;;;;;;;;;4911134;29;20066;-80
2023/04/19 12:47:38;;;;;;;;;;;;;;;;;;4927952;29;19915;-80
2023/04/19 12:50:04;;;;;;;;;;;;;;;;;;4928013;29;20375;-82
2023/04/19 12:52:33;;;;;;;;;;;;;;;;;;4907280;29;19944;-81
2023/04/19 12:54:59;;;;;;;;;;;;;;;;;;4903543;29;20009;-80
2023/04/19 12:57:25;;;;;;;;;;;;;;;;;;4919498;29;19958;-82
2023/04/19 12:59:51;;;;;;;;;;;;;;;;;;4903751;29;20299;-80
2023/04/19 13:02:16;;;;;;;;;;;;;;;;;;4902991;29;20298;-83
2023/04/19 13:04:42;;;;;;;;;;;;;;;;;;4902751;29;19915;-80
2023/04/19 13:07:11;;;;;;;;;;;;;;;;;;4918863;29;19943;-82
2023/04/19 13:09:37;;;;;;;;;;;;;;;;;;4901869;29;19997;-82
2023/04/19 13:12:05;;;;;;;;;;;;;;;;;;4900350;29;20430;-82
2023/04/19 13:14:31;;;;;;;;;;;;;;;;;;4916049;29;19994;-82
2023/04/19 13:16:56;;;;;;;;;;;;;;;;;;4918079;29;20359;-83
2023/04/19 13:19:22;;;;;;;;;;;;;;;;;;4917547;29;19919;-84
2023/04/19 13:21:48;;;;;;;;;;;;;;;;;;4902076;29;19915;-83
2023/04/19 13:24:16;;;;;;;;;;;;;;;;;;4918228;29;19915;-81
2023/04/19 13:26:44;;;;;;;;;;;;;;;;;;4915891;29;19915;-84
2023/04/19 13:29:10;;;;;;;;;;;;;;;;;;4915224;29;19970;-82
2023/04/19 13:31:36;;;;;;;;;;;;;;;;;;4917999;29;19915;-82
2023/04/19 13:34:01;;;;;;;;;;;;;;;;;;4915156;29;20395;-83
2023/04/19 13:36:27;;;;;;;;;;;;;;;;;;4914781;29;20342;-82
2023/04/19 13:38:53;;;;;;;;;;;;;;;;;;4915055;29;19915;-83
2023/04/19 13:41:19;;;;;;;;;;;;;;;;;;4914673;29;20051;-84
2023/04/19 13:43:47;;;;;;;;;;;;;;;;;;4883859;29;19959;-82
2023/04/19 13:46:13;;;;;;;;;;;;;;;;;;4898807;29;19954;-81
2023/04/19 13:48:39;;;;;;;;;;;;;;;;;;4914752;29;20355;-84
2023/04/19 13:51:04;;;;;;;;;;;;;;;;;;4915953;29;19919;-83
2023/04/19 13:53:30;;;;;;;;;;;;;;;;;;4915231;29;19926;-84
2023/04/19 13:55:55;;;;;;;;;;;;;;;;;;4915217;29;19916;-84
2023/04/19 13:58:23;;;;;;;;;;;;;;;;;;4900243;29;20302;-82
2023/04/19 14:00:49;;;;;;;;;;;;;;;;;;4916119;29;19915;-83
2023/04/19 14:03:15;;;;;;;;;;;;;;;;;;4916046;29;19965;-84
2023/04/19 14:05:41;;;;;;;;;;;;;;;;;;4885287;29;20260;-82
2023/04/19 14:08:07;;;;;;;;;;;;;;;;;;4918196;29;20295;-84
2023/04/19 14:10:32;;;;;;;;;;;;;;;;;;4902529;29;19915;-81
2023/04/19 14:12:57;;;;;;;;;;;;;;;;;;4918339;29;20330;-81
2023/04/19 14:15:24;;;;;;;;;;;;;;;;;;4918609;29;19923;-82
2023/04/19 14:17:50;;;;;;;;;;;;;;;;;;4901681;29;19926;-82
2023/04/19 14:20:16;;;;;;;;;;;;;;;;;;4886262;29;19997;-83
2023/04/19 14:22:42;;;;;;;;;;;;;;;;;;4906449;29;20398;-81
2023/04/19 14:25:07;;;;;;;;;;;;;;;;;;4907492;29;19921;-83
2023/04/19 14:27:33;;;;;;;;;;;;;;;;;;4910974;29;20346;-80
2023/04/19 14:29:59;;;;;;;;;;;;;;;;;;4927152;29;19943;-86
2023/04/19 14:32:24;;;;;;;;;;;;;;;;;;4926517;29;19915;-82
2023/04/19 14:34:50;;;;;;;;;;;;;;;;;;4934383;29;19927;-79
2023/04/19 14:37:16;;;;;;;;;;;;;;;;;;4920286;29;19984;-80
2023/04/19 14:39:41;;;;;;;;;;;;;;;;;;4935671;29;19982;-80
2023/04/19 14:42:07;;;;;;;;;;;;;;;;;;4935239;29;20386;-81
2023/04/19 14:44:32;;;;;;;;;;;;;;;;;;4928651;29;19918;-79
2023/04/19 14:46:58;;;;;;;;;;;;;;;;;;4913991;29;19915;-80
2023/04/19 14:49:26;;;;;;;;;;;;;;;;;;4915652;29;19922;-79
2023/04/19 14:51:55;;;;;;;;;;;;;;;;;;4929056;29;19919;-80
2023/04/19 14:54:20;;;;;;;;;;;;;;;;;;4928158;29;19919;-80
2023/04/19 14:56:46;;;;;;;;;;;;;;;;;;4928070;29;19939;-81
2023/04/19 14:59:11;;;;;;;;;;;;;;;;;;4911459;29;20311;-80
2023/04/19 15:01:39;;;;;;;;;;;;;;;;;;4926823;29;19979;-80
2023/04/19 15:04:05;;;;;;;;;;;;;;;;;;4909473;29;19919;-79
2023/04/19 15:06:30;;;;;;;;;;;;;;;;;;4927967;29;20346;-79
2023/04/19 15:08:56;;;;;;;;;;;;;;;;;;4927153;29;19922;-80
2023/04/19 15:11:22;;;;;;;;;;;;;;;;;;4910228;29;19922;-80
2023/04/19 15:13:50;;;;;;;;;;;;;;;;;;4925525;29;20425;-81
2023/04/19 15:16:15;;;;;;;;;;;;;;;;;;4925821;29;20197;-81
2023/04/19 15:18:41;;;;;;;;;;;;;;;;;;4926615;29;19974;-80
2023/04/19 15:21:09;;;;;;;;;;;;;;;;;;4928864;29;19931;-79
2023/04/19 15:23:35;;;;;;;;;;;;;;;;;;4926742;29;19915;-79
2023/04/19 15:26:01;;;;;;;;;;;;;;;;;;4927602;29;19922;-80
2023/04/19 15:28:30;;;;;;;;;;;;;;;;;;4910606;29;19915;-81
2023/04/19 15:30:58;;;;;;;;;;;;;;;;;;4911020;29;19918;-81
2023/04/19 15:33:24;;;;;;;;;;;;;;;;;;4908837;29;19929;-79
2023/04/19 15:35:50;;;;;;;;;;;;;;;;;;4910378;29;19955;-80
2023/04/19 15:38:19;;;;;;;;;;;;;;;;;;4926765;29;19943;-80
2023/04/19 15:40:48;;;;;;;;;;;;;;;;;;4909031;29;19922;-79
2023/04/19 15:43:16;;;;;;;;;;;;;;;;;;4909024;29;19977;-81
2023/04/19 15:45:42;;;;;;;;;;;;;;;;;;4910471;29;20379;-81
2023/04/19 15:48:11;;;;;;;;;;;;;;;;;;4912217;29;20003;-80
2023/04/19 15:50:37;;;;;;;;;;;;;;;;;;4894197;29;20430;-80
2023/04/19 15:53:02;;;;;;;;;;;;;;;;;;4925557;29;19923;-80
2023/04/19 15:55:28;;;;;;;;;;;;;;;;;;4925636;29;19915;-80
2023/04/19 15:57:54;;;;;;;;;;;;;;;;;;4925535;29;19915;-81
2023/04/19 16:00:22;;;;;;;;;;;;;;;;;;4924422;29;19978;-80
2023/04/19 16:02:48;;;;;;;;;;;;;;;;;;4924749;29;19915;-80
2023/04/19 16:05:24;;;;;;;;;;;;;;;;;;4909010;29;19965;-81
2023/04/19 16:07:49;;;;;;;;;;;;;;;;;;4907142;29;20431;-80
2023/04/19 16:10:15;;;;;;;;;;;;;;;;;;4925050;29;19915;-80
2023/04/19 16:12:42;;;;;;;;;;;;;;;;;;4926230;29;19915;-80
2023/04/19 16:15:08;;;;;;;;;;;;;;;;;;4909078;29;20018;-80
2023/04/19 16:17:36;;;;;;;;;;;;;;;;;;4926197;29;19947;-81
2023/04/19 16:20:03;;;;;;;;;;;;;;;;;;4924223;29;20344;-80
2023/04/19 16:22:29;;;;;;;;;;;;;;;;;;4892716;29;19919;-80
2023/04/19 16:25:00;;;;;;;;;;;;;;;;;;4922526;29;20159;-80
2023/04/19 16:27:27;;;;;;;;;;;;;;;;;;4905292;29;19922;-78
2023/04/19 16:29:52;;;;;;;;;;;;;;;;;;4921188;29;19915;-80
2023/04/19 16:32:18;;;;;;;;;;;;;;;;;;4920444;29;19922;-79
2023/04/19 16:34:44;;;;;;;;;;;;;;;;;;4920355;29;19923;-78
2023/04/19 16:37:09;;;;;;;;;;;;;;;;;;4921865;29;20343;-79